createdAt,value
2018-09-22T00:02:20.105Z,14.45
2018-09-22T00:04:47.794Z,14.41
2018-09-22T00:07:15.617Z,14.35
2018-09-22T00:09:43.440Z,14.37
2018-09-22T00:12:11.140Z,14.48
2018-09-22T00:14:38.922Z,14.42
2018-09-22T00:17:06.781Z,14.35
2018-09-22T00:19:34.593Z,14.33
2018-09-22T00:22:02.397Z,14.43
2018-09-22T00:24:30.218Z,14.38
2018-09-22T00:26:58.531Z,14.37
2018-09-22T00:29:26.280Z,14.40
2018-09-22T00:31:54.007Z,14.34
2018-09-22T00:34:21.701Z,14.30
2018-09-22T00:36:49.506Z,14.16
2018-09-22T00:39:17.317Z,14.20
2018-09-22T00:41:45.038Z,14.18
2018-09-22T00:44:12.719Z,14.08
2018-09-22T00:46:40.505Z,14.09
2018-09-22T00:49:08.181Z,14.13
2018-09-22T00:51:35.865Z,14.08
2018-09-22T00:54:03.749Z,14.08
2018-09-22T00:56:31.581Z,13.98
2018-09-22T00:58:59.329Z,13.89
2018-09-22T01:01:27.180Z,14.05
2018-09-22T01:03:54.996Z,14.09
2018-09-22T01:06:22.726Z,14.07
2018-09-22T01:08:50.429Z,14.10
2018-09-22T01:11:18.116Z,14.14
2018-09-22T01:13:45.977Z,14.11
2018-09-22T01:16:13.671Z,14.01
2018-09-22T01:18:41.363Z,13.91
2018-09-22T01:21:09.101Z,13.88
2018-09-22T01:23:36.760Z,13.87
2018-09-22T01:26:04.573Z,13.83
2018-09-22T01:28:32.516Z,13.80
2018-09-22T01:31:00.317Z,13.87
2018-09-22T01:33:28.006Z,13.86
2018-09-22T01:35:55.789Z,13.86
2018-09-22T01:38:23.462Z,13.82
2018-09-22T01:40:51.139Z,13.79
2018-09-22T01:43:18.902Z,13.77
2018-09-22T01:45:46.643Z,13.83
2018-09-22T01:48:14.576Z,13.82
2018-09-22T01:50:42.303Z,13.91
2018-09-22T01:53:10.610Z,13.90
2018-09-22T01:55:38.283Z,13.84
2018-09-22T01:58:06.049Z,13.85
2018-09-22T02:00:33.740Z,13.81
2018-09-22T02:03:01.396Z,13.83
2018-09-22T02:05:29.106Z,13.84
2018-09-22T02:07:56.777Z,13.59
2018-09-22T02:10:24.475Z,13.67
2018-09-22T02:12:52.156Z,13.72
2018-09-22T02:15:19.916Z,13.77
2018-09-22T02:17:47.649Z,13.63
2018-09-22T02:20:15.388Z,13.51
2018-09-22T02:22:43.090Z,13.63
2018-09-22T02:25:10.767Z,13.60
2018-09-22T02:27:38.457Z,13.53
2018-09-22T02:30:06.269Z,13.47
2018-09-22T02:32:33.982Z,13.45
2018-09-22T02:35:01.648Z,13.41
2018-09-22T02:37:29.441Z,13.43
2018-09-22T02:39:57.297Z,13.32
2018-09-22T02:42:25.090Z,13.35
2018-09-22T02:44:52.846Z,13.34
2018-09-22T02:47:20.647Z,13.28
2018-09-22T02:49:48.435Z,13.16
2018-09-22T02:52:16.225Z,13.13
2018-09-22T02:54:43.917Z,13.11
2018-09-22T02:57:11.606Z,13.04
2018-09-22T02:59:39.296Z,13.00
2018-09-22T03:02:07.026Z,12.94
2018-09-22T03:04:34.698Z,12.96
2018-09-22T03:07:02.381Z,12.87
2018-09-22T03:09:30.071Z,12.89
2018-09-22T03:11:57.758Z,12.96
2018-09-22T03:14:25.432Z,12.90
2018-09-22T03:16:53.189Z,12.81
2018-09-22T03:19:20.894Z,12.81
2018-09-22T03:21:48.583Z,12.89
2018-09-22T03:24:16.317Z,12.78
2018-09-22T03:26:44.065Z,12.81
2018-09-22T03:29:11.748Z,12.87
2018-09-22T03:31:39.427Z,12.95
2018-09-22T03:34:07.178Z,12.89
2018-09-22T03:36:34.886Z,12.87
2018-09-22T03:39:02.844Z,12.90
2018-09-22T03:41:30.508Z,12.84
2018-09-22T03:43:58.209Z,12.80
2018-09-22T03:46:25.923Z,12.77
2018-09-22T03:48:53.579Z,12.66
2018-09-22T03:51:21.252Z,12.71
2018-09-22T03:53:48.979Z,12.69
2018-09-22T03:56:16.763Z,12.75
2018-09-22T03:58:44.483Z,12.68
2018-09-22T04:01:12.294Z,12.60
2018-09-22T04:03:40.061Z,12.63
2018-09-22T04:06:07.868Z,12.69
2018-09-22T04:08:36.057Z,12.59
2018-09-22T04:11:03.756Z,12.64
2018-09-22T04:13:31.458Z,12.62
2018-09-22T04:15:59.134Z,12.55
2018-09-22T04:18:26.823Z,12.56
2018-09-22T04:20:54.496Z,12.67
2018-09-22T04:23:22.220Z,12.84
2018-09-22T04:25:49.916Z,12.82
2018-09-22T04:28:17.603Z,12.79
2018-09-22T04:30:45.339Z,12.70
2018-09-22T04:33:13.048Z,12.63
2018-09-22T04:35:40.754Z,12.57
2018-09-22T04:38:08.607Z,12.59
2018-09-22T04:40:36.285Z,12.69
2018-09-22T04:43:03.990Z,12.66
2018-09-22T04:45:31.786Z,12.71
2018-09-22T04:47:59.483Z,12.77
2018-09-22T04:50:27.156Z,12.71
2018-09-22T04:52:54.812Z,12.82
2018-09-22T04:55:22.489Z,12.90
2018-09-22T04:57:50.198Z,12.87
2018-09-22T05:00:17.910Z,12.73
2018-09-22T05:02:45.657Z,12.69
2018-09-22T05:05:13.408Z,12.82
2018-09-22T05:07:41.234Z,12.71
2018-09-22T05:10:08.933Z,12.67
2018-09-22T05:12:36.712Z,12.75
2018-09-22T05:15:04.519Z,12.79
2018-09-22T05:17:32.232Z,12.82
2018-09-22T05:20:00.003Z,12.87
2018-09-22T05:22:27.828Z,12.92
2018-09-22T05:24:55.564Z,12.74
2018-09-22T05:27:23.393Z,12.72
2018-09-22T05:29:51.238Z,12.69
2018-09-22T05:32:18.947Z,12.73
2018-09-22T05:34:46.722Z,12.83
2018-09-22T05:37:14.488Z,12.82
2018-09-22T05:39:42.278Z,12.85
2018-09-22T05:42:10.015Z,12.85
2018-09-22T05:44:37.767Z,12.92
2018-09-22T05:47:07.065Z,12.94
2018-09-22T05:49:35.482Z,13.19
2018-09-22T05:52:03.634Z,13.32
2018-09-22T05:54:31.519Z,13.47
2018-09-22T05:56:59.749Z,13.58
2018-09-22T05:59:28.013Z,13.50
2018-09-22T06:01:56.188Z,13.53
2018-09-22T06:04:24.126Z,13.40
2018-09-22T06:06:52.142Z,13.41
2018-09-22T06:09:20.257Z,13.35
2018-09-22T06:11:48.497Z,13.48
2018-09-22T06:14:16.776Z,13.34
2018-09-22T06:16:44.869Z,13.50
2018-09-22T06:19:12.977Z,13.38
2018-09-22T06:21:41.158Z,13.30
2018-09-22T06:24:09.298Z,13.25
2018-09-22T06:26:37.481Z,13.41
2018-09-22T06:29:05.914Z,13.58
2018-09-22T06:31:33.961Z,13.83
2018-09-22T06:34:02.407Z,13.78
2018-09-22T06:36:30.230Z,13.65
2018-09-22T06:38:57.995Z,13.51
2018-09-22T06:41:25.750Z,13.62
2018-09-22T06:43:53.502Z,13.75
2018-09-22T06:46:21.420Z,13.59
2018-09-22T06:48:49.505Z,13.50
2018-09-22T06:51:17.310Z,13.65
2018-09-22T06:53:46.271Z,13.74
2018-09-22T06:56:15.033Z,13.85
2018-09-22T06:58:43.126Z,14.20
2018-09-22T07:01:11.776Z,14.09
2018-09-22T07:03:39.535Z,14.04
2018-09-22T07:06:07.546Z,14.06
2018-09-22T07:08:35.318Z,14.14
2018-09-22T07:11:03.073Z,14.01
2018-09-22T07:13:30.841Z,13.99
2018-09-22T07:15:58.589Z,13.95
2018-09-22T07:18:26.364Z,14.11
2018-09-22T07:20:59.716Z,14.14
2018-09-22T07:23:27.406Z,14.38
2018-09-22T07:25:55.088Z,14.14
2018-09-22T07:28:22.923Z,14.22
2018-09-22T07:30:50.971Z,14.37
2018-09-22T07:33:18.712Z,14.58
2018-09-22T07:35:46.474Z,14.65
2018-09-22T07:38:14.216Z,14.81
2018-09-22T07:40:41.907Z,14.92
2018-09-22T07:43:09.625Z,14.94
2018-09-22T07:45:37.522Z,15.01
2018-09-22T07:48:07.263Z,15.13
2018-09-22T07:50:35.639Z,15.09
2018-09-22T07:53:03.662Z,14.97
2018-09-22T07:55:31.557Z,15.02
2018-09-22T07:57:59.565Z,15.00
2018-09-22T08:00:27.695Z,14.89
2018-09-22T08:02:55.467Z,14.81
2018-09-22T08:05:23.211Z,14.86
2018-09-22T08:07:51.197Z,17.32
2018-09-22T08:10:19.203Z,19.07
2018-09-22T08:12:47.250Z,19.37
2018-09-22T08:15:15.081Z,19.68
2018-09-22T08:17:42.859Z,20.77
2018-09-22T08:20:10.661Z,21.06
2018-09-22T08:22:38.375Z,21.07
2018-09-22T08:25:06.147Z,20.19
2018-09-22T08:27:34.345Z,21.62
2018-09-22T08:30:02.210Z,22.84
2018-09-22T08:32:30.543Z,23.36
2018-09-22T08:34:58.625Z,23.54
2018-09-22T08:37:26.904Z,22.97
2018-09-22T08:39:55.096Z,23.11
2018-09-22T08:42:22.953Z,22.89
2018-09-22T08:44:50.895Z,23.11
2018-09-22T08:47:18.795Z,21.00
2018-09-22T08:49:46.882Z,21.64
2018-09-22T08:52:14.696Z,21.72
2018-09-22T08:54:42.619Z,21.08
2018-09-22T08:57:10.628Z,20.33
2018-09-22T08:59:38.636Z,20.03
2018-09-22T09:02:06.819Z,19.66
2018-09-22T09:04:34.625Z,20.13
2018-09-22T09:07:02.597Z,20.40
2018-09-22T09:09:30.502Z,19.53
2018-09-22T09:11:58.497Z,20.12
2018-09-22T09:14:26.265Z,21.41
2018-09-22T09:16:54.247Z,22.04
2018-09-22T09:19:22.129Z,22.32
2018-09-22T09:21:50.087Z,22.37
2018-09-22T09:24:17.997Z,22.65
2018-09-22T09:26:45.927Z,21.36
2018-09-22T09:29:13.669Z,21.22
2018-09-22T09:31:41.325Z,20.34
2018-09-22T09:34:09.033Z,20.52
2018-09-22T09:36:36.713Z,19.84
2018-09-22T09:39:04.911Z,19.46
2018-09-22T09:41:32.663Z,19.52
2018-09-22T09:44:00.353Z,18.73
2018-09-22T09:49:02.621Z,18.94
2018-09-22T09:51:30.559Z,19.19
2018-09-22T09:53:58.237Z,19.10
2018-09-22T09:56:25.919Z,19.28
2018-09-22T09:58:53.690Z,19.15
2018-09-22T10:01:21.361Z,19.44
2018-09-22T10:03:49.090Z,20.19
2018-09-22T10:06:16.942Z,19.83
2018-09-22T10:08:44.640Z,19.32
2018-09-22T10:11:12.360Z,19.41
2018-09-22T10:13:40.159Z,19.27
2018-09-22T10:16:07.986Z,19.12
2018-09-22T10:18:35.805Z,19.02
2018-09-22T10:21:03.741Z,18.99
2018-09-22T10:23:31.447Z,19.29
2018-09-22T10:25:59.246Z,19.58
2018-09-22T10:28:27.099Z,19.58
2018-09-22T10:30:55.071Z,19.14
2018-09-22T10:33:22.824Z,18.75
2018-09-22T10:35:50.654Z,18.84
2018-09-22T10:38:18.511Z,19.11
2018-09-22T10:40:46.263Z,19.41
2018-09-22T10:43:14.189Z,19.25
2018-09-22T10:45:41.934Z,18.64
2018-09-22T10:48:09.689Z,18.13
2018-09-22T10:50:37.616Z,18.40
2018-09-22T10:53:05.784Z,18.82
2018-09-22T10:55:33.603Z,18.36
2018-09-22T10:58:01.324Z,18.98
2018-09-22T11:00:29.059Z,19.27
2018-09-22T11:02:56.800Z,19.00
2018-09-22T11:05:24.582Z,18.80
2018-09-22T11:07:52.322Z,19.43
2018-09-22T11:10:20.086Z,19.74
2018-09-22T11:12:48.014Z,20.02
2018-09-22T11:15:15.780Z,19.59
2018-09-22T11:17:43.593Z,19.12
2018-09-22T11:20:11.431Z,19.22
2018-09-22T11:22:39.210Z,19.15
2018-09-22T11:25:07.198Z,18.80
2018-09-22T11:27:34.987Z,18.41
2018-09-22T11:30:02.734Z,18.71
2018-09-22T11:32:30.594Z,19.37
2018-09-22T11:34:58.382Z,19.95
2018-09-22T11:37:26.198Z,20.71
2018-09-22T11:39:54.315Z,21.16
2018-09-22T11:42:22.529Z,21.58
2018-09-22T11:44:50.863Z,22.33
2018-09-22T11:47:18.837Z,22.46
2018-09-22T11:49:46.566Z,22.80
2018-09-22T11:52:14.452Z,23.33
2018-09-22T11:54:42.147Z,24.01
2018-09-22T11:57:09.905Z,24.19
2018-09-22T11:59:37.625Z,23.99
2018-09-22T12:02:05.703Z,23.48
2018-09-22T12:04:33.549Z,23.15
2018-09-22T12:07:01.368Z,22.59
2018-09-22T12:09:29.117Z,22.23
2018-09-22T12:11:56.898Z,22.92
2018-09-22T12:14:24.752Z,23.04
2018-09-22T12:16:52.511Z,23.03
2018-09-22T12:19:20.318Z,22.34
2018-09-22T12:21:48.134Z,22.20
2018-09-22T12:24:16.152Z,22.22
2018-09-22T12:26:43.894Z,21.59
2018-09-22T12:29:11.694Z,21.97
2018-09-22T12:31:39.428Z,22.29
2018-09-22T12:34:07.189Z,22.61
2018-09-22T12:36:34.973Z,22.88
2018-09-22T12:39:02.956Z,24.18
2018-09-22T12:41:30.693Z,23.82
2018-09-22T12:43:58.482Z,23.14
2018-09-22T12:46:26.297Z,22.40
2018-09-22T12:48:54.044Z,21.26
2018-09-22T12:51:21.883Z,21.26
2018-09-22T12:53:49.748Z,20.65
2018-09-22T12:56:17.545Z,20.33
2018-09-22T12:58:45.323Z,19.86
2018-09-22T13:01:13.028Z,19.61
2018-09-22T13:03:40.790Z,19.46
2018-09-22T13:06:08.560Z,19.56
2018-09-22T13:08:36.214Z,19.83
2018-09-22T13:11:03.947Z,20.19
2018-09-22T13:13:31.903Z,20.25
2018-09-22T13:15:59.588Z,20.27
2018-09-22T13:18:27.390Z,19.55
2018-09-22T13:20:55.211Z,19.61
2018-09-22T13:23:22.958Z,19.90
2018-09-22T13:25:50.738Z,20.09
2018-09-22T13:28:18.550Z,20.10
2018-09-22T13:30:46.294Z,20.29
2018-09-22T13:33:14.014Z,20.85
2018-09-22T13:35:41.802Z,21.45
2018-09-22T13:38:09.530Z,20.70
2018-09-22T13:40:37.235Z,20.11
2018-09-22T13:43:05.125Z,19.91
2018-09-22T13:45:33.037Z,19.81
2018-09-22T13:48:00.779Z,20.08
2018-09-22T13:50:28.501Z,20.12
2018-09-22T13:52:56.332Z,20.12
2018-09-22T13:55:24.115Z,20.03
2018-09-22T13:57:51.985Z,19.70
2018-09-22T14:00:19.717Z,19.61
2018-09-22T14:02:47.452Z,19.48
2018-09-22T14:05:15.254Z,19.30
2018-09-22T14:07:42.992Z,19.44
2018-09-22T14:10:10.861Z,19.66
2018-09-22T14:12:38.682Z,19.67
2018-09-22T14:15:06.442Z,19.92
2018-09-22T14:17:34.278Z,19.92
2018-09-22T14:20:01.997Z,19.84
2018-09-22T14:22:29.730Z,19.76
2018-09-22T14:24:57.454Z,19.84
2018-09-22T14:27:25.290Z,20.06
2018-09-22T14:29:52.962Z,19.73
2018-09-22T14:32:20.693Z,19.30
2018-09-22T14:34:48.473Z,18.96
2018-09-22T14:37:16.212Z,19.15
2018-09-22T14:39:43.933Z,19.55
2018-09-22T14:42:11.796Z,19.36
2018-09-22T14:44:39.610Z,19.31
2018-09-22T14:47:07.403Z,19.52
2018-09-22T14:49:35.170Z,19.08
2018-09-22T14:52:02.965Z,18.78
2018-09-22T14:54:30.769Z,18.59
2018-09-22T14:56:58.599Z,18.45
2018-09-22T14:59:26.437Z,18.32
2018-09-22T15:01:54.219Z,18.41
2018-09-22T15:04:21.928Z,18.26
2018-09-22T15:06:49.664Z,18.06
2018-09-22T15:09:17.384Z,17.91
2018-09-22T15:11:45.254Z,17.88
2018-09-22T15:14:13.020Z,17.87
2018-09-22T15:16:40.798Z,17.80
2018-09-22T15:19:08.491Z,17.79
2018-09-22T15:21:36.286Z,17.78
2018-09-22T15:24:04.041Z,17.61
2018-09-22T15:26:31.870Z,17.55
2018-09-22T15:28:59.809Z,17.52
2018-09-22T15:31:27.541Z,17.61
2018-09-22T15:33:55.310Z,17.65
2018-09-22T15:36:23.041Z,17.68
2018-09-22T15:38:50.889Z,17.74
2018-09-22T15:41:18.708Z,17.66
2018-09-22T15:43:46.494Z,17.66
2018-09-22T15:46:14.276Z,17.56
2018-09-22T15:48:41.993Z,17.67
2018-09-22T15:51:09.833Z,17.71
2018-09-22T15:53:37.630Z,17.72
2018-09-22T15:56:05.489Z,17.72
2018-09-22T15:58:33.304Z,17.80
2018-09-22T16:01:01.932Z,17.53
2018-09-22T16:03:29.801Z,17.58
2018-09-22T16:05:57.508Z,17.46
2018-09-22T16:08:26.651Z,17.37
2018-09-22T16:10:55.501Z,17.44
2018-09-22T16:13:23.527Z,17.37
2018-09-22T16:15:51.314Z,17.53
2018-09-22T16:18:19.116Z,17.58
2018-09-22T16:20:46.960Z,17.51
2018-09-22T16:23:14.758Z,17.41
2018-09-22T16:25:42.490Z,17.47
2018-09-22T16:28:10.249Z,17.59
2018-09-22T16:30:37.948Z,17.48
2018-09-22T16:33:05.919Z,17.53
2018-09-22T16:35:33.653Z,17.54
2018-09-22T16:38:01.633Z,17.48
2018-09-22T16:40:29.482Z,17.48
2018-09-22T16:42:57.208Z,17.42
2018-09-22T16:45:25.056Z,17.48
2018-09-22T16:47:52.860Z,17.41
2018-09-22T16:50:20.663Z,17.40
2018-09-22T16:52:48.424Z,17.30
2018-09-22T16:55:16.170Z,17.26
2018-09-22T16:57:43.993Z,17.35
2018-09-22T17:00:11.858Z,17.43
2018-09-22T17:02:39.705Z,17.35
2018-09-22T17:05:07.512Z,17.35
2018-09-22T17:07:35.281Z,17.34
2018-09-22T17:10:03.004Z,17.28
2018-09-22T17:12:30.761Z,17.19
2018-09-22T17:14:58.495Z,17.15
2018-09-22T17:17:26.269Z,17.13
2018-09-22T17:19:54.062Z,17.14
2018-09-22T17:22:21.838Z,16.98
2018-09-22T17:24:49.567Z,16.96
2018-09-22T17:27:17.342Z,17.00
2018-09-22T17:29:45.099Z,17.02
2018-09-22T17:32:12.937Z,17.04
2018-09-22T17:34:40.642Z,17.06
2018-09-22T17:37:08.432Z,17.09
2018-09-22T17:39:36.263Z,17.03
2018-09-22T17:42:04.039Z,16.99
2018-09-22T17:44:31.799Z,16.98
2018-09-22T17:46:59.489Z,16.88
2018-09-22T17:49:27.469Z,16.93
2018-09-22T17:51:55.257Z,16.98
2018-09-22T17:54:22.983Z,16.86
2018-09-22T17:56:50.838Z,16.87
2018-09-22T17:59:18.570Z,16.79
2018-09-22T18:01:46.313Z,16.66
2018-09-22T18:04:14.114Z,16.70
2018-09-22T18:06:41.900Z,16.78
2018-09-22T18:09:09.798Z,16.71
2018-09-22T18:11:38.164Z,16.84
2018-09-22T18:14:05.990Z,16.81
2018-09-22T18:16:33.695Z,16.75
2018-09-22T18:19:01.508Z,16.71
2018-09-22T18:21:29.341Z,16.67
2018-09-22T18:23:57.025Z,16.64
2018-09-22T18:26:24.774Z,16.70
2018-09-22T18:28:52.629Z,16.75
2018-09-22T18:31:20.318Z,16.83
2018-09-22T18:33:48.134Z,16.72
2018-09-22T18:36:15.948Z,16.67
2018-09-22T18:38:43.969Z,16.74
2018-09-22T18:41:11.837Z,16.63
2018-09-22T18:43:39.629Z,16.57
2018-09-22T18:46:07.607Z,16.64
2018-09-22T18:48:35.285Z,16.61
2018-09-22T18:51:03.046Z,16.50
2018-09-22T18:53:31.106Z,16.52
2018-09-22T18:55:59.195Z,16.49
2018-09-22T18:58:39.829Z,16.57
2018-09-22T19:01:07.573Z,16.55
2018-09-22T19:03:35.384Z,16.48
2018-09-22T19:06:03.494Z,16.50
2018-09-22T19:08:31.192Z,16.51
2018-09-22T19:10:59.033Z,16.45
2018-09-22T19:13:38.332Z,16.35
2018-09-22T19:16:11.543Z,16.35
2018-09-22T19:18:52.056Z,16.36
2018-09-22T19:21:24.270Z,16.26
2018-09-22T19:23:56.022Z,16.34
2018-09-22T19:26:27.126Z,16.36
2018-09-22T19:28:58.570Z,16.24
2018-09-22T19:31:30.054Z,16.27
2018-09-22T19:34:02.366Z,16.19
2018-09-22T19:37:07.671Z,16.16
2018-09-22T19:39:55.210Z,16.23
2018-09-22T19:42:33.897Z,16.32
2018-09-22T19:45:06.471Z,16.38
2018-09-22T19:49:40.693Z,16.39
2018-09-22T19:52:11.571Z,16.22
2018-09-22T19:54:39.414Z,16.18
2018-09-22T19:57:07.233Z,16.13
2018-09-22T19:59:35.121Z,16.22
2018-09-22T20:02:02.989Z,16.18
2018-09-22T20:04:42.180Z,16.12
2018-09-22T20:07:10.726Z,16.10
2018-09-22T20:09:38.517Z,16.10
2018-09-22T20:12:06.372Z,16.13
2018-09-22T20:14:34.073Z,16.12
2018-09-22T20:17:01.773Z,16.10
2018-09-22T20:19:29.505Z,16.10
2018-09-22T20:21:58.088Z,16.11
2018-09-22T20:24:26.878Z,16.08
2018-09-22T20:26:55.076Z,16.09
2018-09-22T20:29:23.374Z,16.16
2018-09-22T20:31:51.169Z,16.11
2018-09-22T20:34:19.001Z,16.04
2018-09-22T20:36:46.753Z,16.03
2018-09-22T20:39:14.650Z,16.00
2018-09-22T20:41:42.499Z,15.94
2018-09-22T20:44:10.394Z,15.84
2018-09-22T20:46:38.300Z,15.73
2018-09-22T20:49:06.136Z,15.79
2018-09-22T20:51:33.929Z,15.75
2018-09-22T20:54:01.697Z,15.71
2018-09-22T20:56:29.445Z,15.71
2018-09-22T20:58:57.161Z,15.78
2018-09-22T21:01:24.988Z,15.74
2018-09-22T21:03:52.738Z,15.74
2018-09-22T21:06:20.762Z,15.72
2018-09-22T21:08:48.494Z,15.68
2018-09-22T21:11:16.202Z,15.80
2018-09-22T21:13:43.873Z,15.87
2018-09-22T21:16:11.736Z,15.86
2018-09-22T21:18:39.456Z,15.89
2018-09-22T21:21:07.215Z,15.91
2018-09-22T21:23:34.987Z,15.95
2018-09-22T21:26:02.747Z,15.91
2018-09-22T21:28:30.524Z,15.96
2018-09-22T21:30:58.321Z,15.85
2018-09-22T21:33:26.048Z,15.76
2018-09-22T21:35:53.821Z,15.73
2018-09-22T21:38:21.625Z,15.63
2018-09-22T21:40:49.636Z,15.66
2018-09-22T21:43:17.644Z,15.72
2018-09-22T21:45:45.415Z,15.72
2018-09-22T21:48:13.208Z,15.68
2018-09-22T21:50:42.448Z,15.53
2018-09-22T21:53:10.229Z,15.47
2018-09-22T21:55:38.225Z,15.56
2018-09-22T21:58:06.000Z,15.50
2018-09-22T22:00:33.758Z,15.45
2018-09-22T22:03:01.532Z,15.53
2018-09-22T22:05:29.737Z,15.60
2018-09-22T22:07:57.682Z,15.63
2018-09-22T22:10:25.745Z,15.57
2018-09-22T22:12:53.749Z,15.44
2018-09-22T22:15:21.646Z,15.45
2018-09-22T22:17:49.399Z,15.48
2018-09-22T22:20:19.240Z,15.48
2018-09-22T22:22:47.228Z,15.45
2018-09-22T22:25:15.701Z,15.41
2018-09-22T22:27:44.044Z,15.37
2018-09-22T22:30:12.247Z,15.24
2018-09-22T22:32:40.712Z,15.22
2018-09-22T22:35:09.643Z,15.38
2018-09-22T22:37:37.792Z,15.39
2018-09-22T22:40:07.198Z,15.24
2018-09-22T22:42:34.973Z,15.16
2018-09-22T22:45:03.087Z,15.02
2018-09-22T22:47:32.175Z,14.90
2018-09-22T22:50:00.056Z,14.79
2018-09-22T22:52:27.977Z,14.72
2018-09-22T22:54:55.750Z,14.55
2018-09-22T22:57:23.828Z,14.55
2018-09-22T22:59:51.655Z,14.53
2018-09-22T23:02:20.180Z,14.49
2018-09-22T23:04:47.938Z,14.42
2018-09-22T23:07:15.788Z,14.39
2018-09-22T23:09:44.472Z,14.38
2018-09-22T23:12:12.441Z,14.38
2018-09-22T23:14:40.289Z,14.45
2018-09-22T23:17:08.163Z,14.46
2018-09-22T23:19:36.291Z,14.40
2018-09-22T23:22:04.508Z,14.41
2018-09-22T23:24:32.377Z,14.36
2018-09-22T23:27:00.195Z,14.22
2018-09-22T23:29:28.237Z,14.22
2018-09-22T23:31:56.218Z,14.25
2018-09-22T23:34:24.094Z,14.21
2018-09-22T23:36:52.041Z,14.24
2018-09-22T23:39:19.959Z,14.01
2018-09-22T23:41:47.866Z,13.92
2018-09-22T23:44:16.649Z,13.68
2018-09-22T23:46:44.680Z,13.62
2018-09-22T23:49:12.588Z,13.66
2018-09-22T23:51:41.159Z,13.65
2018-09-22T23:54:08.974Z,13.63
2018-09-22T23:56:36.824Z,13.60
2018-09-22T23:59:04.659Z,13.57
